createdAt,value
2017-02-09T00:00:39.726Z,1.22
2017-02-09T00:01:39.703Z,1.24
2017-02-09T00:02:39.801Z,1.25
2017-02-09T00:03:39.673Z,1.31
2017-02-09T00:04:40.001Z,1.18
2017-02-09T00:05:39.586Z,1.28
2017-02-09T00:06:39.659Z,1.25
2017-02-09T00:07:39.137Z,1.28
2017-02-09T00:08:39.498Z,1.5
2017-02-09T00:09:39.859Z,1.57
2017-02-09T00:10:39.465Z,1.4
2017-02-09T00:11:39.438Z,1.39
2017-02-09T00:12:39.396Z,1.54
2017-02-09T00:13:39.749Z,1.35
2017-02-09T00:14:39.344Z,1.26
2017-02-09T00:15:38.914Z,1.21
2017-02-09T00:16:38.895Z,1.21
2017-02-09T00:17:39.262Z,1.28
2017-02-09T00:18:39.613Z,1.33
2017-02-09T00:19:39.592Z,1.37
2017-02-09T00:20:39.561Z,1.29
2017-02-09T00:21:39.536Z,1.33
2017-02-09T00:22:39.490Z,1.17
2017-02-09T00:23:39.088Z,1.25
2017-02-09T00:24:39.439Z,1.28
2017-02-09T00:25:39.407Z,1.31
2017-02-09T00:26:39.000Z,1.22
2017-02-09T00:27:39.357Z,1.08
2017-02-09T00:28:38.946Z,1.19
2017-02-09T00:29:38.916Z,1.18
2017-02-09T00:30:39.288Z,1.1
2017-02-09T00:31:38.855Z,1.13
2017-02-09T00:32:39.222Z,1.21
2017-02-09T00:33:39.199Z,1.29
2017-02-09T00:34:39.171Z,1.36
2017-02-09T00:35:39.173Z,1.35
2017-02-09T00:36:38.733Z,1.55
2017-02-09T00:37:39.080Z,1.5
2017-02-09T00:38:39.060Z,1.54
2017-02-09T00:39:39.022Z,1.54
2017-02-09T00:40:38.627Z,1.57
2017-02-09T00:41:38.611Z,1.57
2017-02-09T00:42:38.549Z,1.57
2017-02-09T00:43:38.548Z,1.54
2017-02-09T00:44:38.488Z,1.47
2017-02-09T00:45:38.880Z,1.53
2017-02-09T00:46:38.058Z,1.6
2017-02-09T00:47:38.806Z,1.6
2017-02-09T00:48:38.407Z,1.6
2017-02-09T00:49:38.415Z,1.57
2017-02-09T00:50:38.735Z,1.53
2017-02-09T00:51:38.694Z,1.39
2017-02-09T00:52:38.664Z,1.24
2017-02-09T00:53:38.655Z,1.25
2017-02-09T00:54:38.614Z,1.36
2017-02-09T00:55:38.583Z,1.33
2017-02-09T00:56:38.543Z,1.13
2017-02-09T00:57:38.543Z,1.17
2017-02-09T00:58:38.499Z,1.19
2017-02-09T00:59:38.471Z,1.18
2017-02-09T01:00:38.050Z,1.28
2017-02-09T01:01:38.415Z,1.26
2017-02-09T01:02:38.388Z,1.29
2017-02-09T01:03:37.639Z,1.35
2017-02-09T01:04:38.330Z,1.26
2017-02-09T01:05:38.301Z,1.28
2017-02-09T01:06:38.285Z,1.28
2017-02-09T01:07:38.247Z,1.25
2017-02-09T01:08:37.919Z,1.28
2017-02-09T01:09:38.207Z,1.28
2017-02-09T01:10:38.154Z,1.33
2017-02-09T01:11:37.744Z,1.43
2017-02-09T01:12:37.724Z,1.29
2017-02-09T01:13:38.084Z,1.29
2017-02-09T01:14:38.055Z,1.44
2017-02-09T01:15:38.011Z,1.42
2017-02-09T01:16:38.005Z,1.39
2017-02-09T01:17:37.981Z,1.21
2017-02-09T01:18:37.548Z,1.31
2017-02-09T01:19:37.510Z,1.28
2017-02-09T01:20:37.890Z,1.22
2017-02-09T01:21:37.468Z,1.22
2017-02-09T01:22:37.428Z,1.33
2017-02-09T01:23:37.407Z,1.4
2017-02-09T01:24:37.775Z,1.4
2017-02-09T01:25:37.736Z,1.43
2017-02-09T01:26:37.316Z,1.39
2017-02-09T01:27:37.735Z,1.42
2017-02-09T01:28:37.266Z,1.44
2017-02-09T01:29:37.235Z,1.47
2017-02-09T01:30:37.212Z,1.42
2017-02-09T01:31:37.173Z,1.36
2017-02-09T01:32:37.153Z,1.35
2017-02-09T01:33:37.512Z,1.35
2017-02-09T01:34:37.481Z,1.4
2017-02-09T01:35:36.687Z,1.25
2017-02-09T01:36:37.052Z,1.25
2017-02-09T01:37:37.012Z,1.26
2017-02-09T01:38:37.412Z,1.29
2017-02-09T01:39:37.349Z,1.18
2017-02-09T01:40:37.351Z,1.29
2017-02-09T01:41:37.288Z,1.25
2017-02-09T01:42:37.316Z,1.29
2017-02-09T01:43:37.254Z,1.29
2017-02-09T01:44:37.210Z,1.29
2017-02-09T01:45:37.185Z,1.33
2017-02-09T01:46:36.778Z,1.33
2017-02-09T01:47:36.734Z,1.29
2017-02-09T01:48:36.726Z,1.28
2017-02-09T01:49:36.304Z,1.24
2017-02-09T01:50:36.262Z,1.26
2017-02-09T01:51:36.631Z,1.24
2017-02-09T01:52:36.591Z,1.29
2017-02-09T01:53:36.961Z,1.33
2017-02-09T01:54:36.541Z,1.43
2017-02-09T01:55:36.520Z,1.43
2017-02-09T01:56:36.869Z,1.4
2017-02-09T01:57:36.843Z,1.36
2017-02-09T01:58:36.828Z,1.31
2017-02-09T01:59:36.800Z,1.26
2017-02-09T02:00:36.458Z,1.24
2017-02-09T02:01:36.727Z,1.22
2017-02-09T02:02:36.708Z,1.08
2017-02-09T02:03:36.685Z,1.17
2017-02-09T02:04:36.646Z,1.18
2017-02-09T02:05:36.243Z,1.22
2017-02-09T02:06:36.596Z,1.1
2017-02-09T02:07:36.574Z,1.1
2017-02-09T02:08:36.145Z,1.21
2017-02-09T02:09:36.524Z,1.22
2017-02-09T02:10:36.501Z,1.31
2017-02-09T02:11:36.472Z,1.26
2017-02-09T02:12:36.042Z,1.36
2017-02-09T02:13:36.454Z,1.4
2017-02-09T02:14:36.420Z,1.28
2017-02-09T02:15:36.340Z,1.31
2017-02-09T02:16:35.932Z,1.28
2017-02-09T02:17:36.339Z,1.15
2017-02-09T02:18:36.278Z,1.22
2017-02-09T02:19:36.248Z,1.15
2017-02-09T02:20:35.823Z,1.03
2017-02-09T02:21:35.897Z,0.93
2017-02-09T02:22:36.166Z,0.99
2017-02-09T02:23:35.745Z,1.03
2017-02-09T02:24:36.145Z,1
2017-02-09T02:25:36.083Z,1.11
2017-02-09T02:26:36.086Z,1.19
2017-02-09T02:27:36.002Z,1.1
2017-02-09T02:28:36.075Z,1.08
2017-02-09T02:29:36.017Z,1.01
2017-02-09T02:30:35.985Z,1.01
2017-02-09T02:31:35.521Z,1.08
2017-02-09T02:32:35.091Z,1.17
2017-02-09T02:33:35.448Z,1.06
2017-02-09T02:34:35.810Z,1.07
2017-02-09T02:35:35.774Z,0.96
2017-02-09T02:36:35.450Z,1.01
2017-02-09T02:37:34.940Z,1.08
2017-02-09T02:38:35.727Z,1.15
2017-02-09T02:39:35.277Z,1.22
2017-02-09T02:40:34.866Z,1.07
2017-02-09T02:41:35.215Z,1.18
2017-02-09T02:42:35.207Z,1.07
2017-02-09T02:43:35.176Z,1.17
2017-02-09T02:44:35.544Z,1.26
2017-02-09T02:45:35.583Z,1.24
2017-02-09T02:46:35.473Z,1.21
2017-02-09T02:47:35.449Z,1.25
2017-02-09T02:48:35.413Z,1.24
2017-02-09T02:49:35.011Z,1.28
2017-02-09T02:50:34.971Z,1.33
2017-02-09T02:51:34.558Z,1.33
2017-02-09T02:52:35.298Z,1.28
2017-02-09T02:53:35.289Z,1.18
2017-02-09T02:54:35.249Z,1.22
2017-02-09T02:55:35.229Z,1.21
2017-02-09T02:56:34.407Z,1.31
2017-02-09T02:57:35.158Z,1.17
2017-02-09T02:58:34.747Z,1.18
2017-02-09T02:59:35.116Z,1.18
2017-02-09T03:00:34.685Z,0.97
2017-02-09T03:01:35.063Z,1
2017-02-09T03:02:35.015Z,1.1
2017-02-09T03:03:34.982Z,1.06
2017-02-09T03:04:35.005Z,1.06
2017-02-09T03:05:34.935Z,1.1
2017-02-09T03:06:34.923Z,1.07
2017-02-09T03:07:34.897Z,1.04
2017-02-09T03:08:34.854Z,0.85
2017-02-09T03:09:34.832Z,0.79
2017-02-09T03:10:34.880Z,0.86
2017-02-09T03:11:34.780Z,0.88
2017-02-09T03:12:34.767Z,0.92
2017-02-09T03:13:34.328Z,0.93
2017-02-09T03:14:34.748Z,0.97
2017-02-09T03:15:34.259Z,1.06
2017-02-09T03:16:34.642Z,1.06
2017-02-09T03:17:34.607Z,1.13
2017-02-09T03:18:34.638Z,1.18
2017-02-09T03:19:34.156Z,1.26
2017-02-09T03:20:34.236Z,1.24
2017-02-09T03:21:34.105Z,1.18
2017-02-09T03:22:34.468Z,1.07
2017-02-09T03:23:34.473Z,1.04
2017-02-09T03:24:34.024Z,0.97
2017-02-09T03:25:34.003Z,0.8
2017-02-09T03:26:34.462Z,0.86
2017-02-09T03:27:34.321Z,0.99
2017-02-09T03:28:33.912Z,1.03
2017-02-09T03:29:33.880Z,1.01
2017-02-09T03:30:33.860Z,1.06
2017-02-09T03:31:33.821Z,1.04
2017-02-09T03:32:34.169Z,1.11
2017-02-09T03:33:33.778Z,1.13
2017-02-09T03:34:33.727Z,1.07
2017-02-09T03:35:34.211Z,0.8
2017-02-09T03:36:34.057Z,0.74
2017-02-09T03:37:33.674Z,0.71
2017-02-09T03:38:33.671Z,0.82
2017-02-09T03:39:33.985Z,1
2017-02-09T03:40:34.004Z,0.86
2017-02-09T03:41:33.924Z,0.86
2017-02-09T03:42:33.141Z,0.75
2017-02-09T03:43:33.535Z,0.72
2017-02-09T03:44:33.953Z,0.71
2017-02-09T03:45:33.811Z,0.79
2017-02-09T03:46:33.791Z,0.86
2017-02-09T03:47:33.761Z,0.89
2017-02-09T03:48:33.721Z,0.99
2017-02-09T03:49:33.693Z,0.99
2017-02-09T03:50:33.659Z,0.86
2017-02-09T03:51:33.341Z,0.88
2017-02-09T03:52:33.614Z,0.82
2017-02-09T03:53:33.215Z,1.01
2017-02-09T03:54:33.572Z,0.9
2017-02-09T03:55:33.517Z,1.08
2017-02-09T03:56:33.121Z,1.1
2017-02-09T03:57:33.502Z,1.11
2017-02-09T03:58:33.436Z,1.03
2017-02-09T03:59:33.415Z,1.03
2017-02-09T04:00:32.994Z,1.04
2017-02-09T04:01:32.583Z,0.89
2017-02-09T04:02:33.326Z,0.74
2017-02-09T04:03:33.308Z,0.65
2017-02-09T04:04:33.283Z,0.79
2017-02-09T04:05:33.246Z,0.72
2017-02-09T04:06:32.831Z,0.83
2017-02-09T04:07:32.797Z,0.82
2017-02-09T04:08:33.166Z,0.79
2017-02-09T04:09:33.136Z,0.68
2017-02-09T04:10:32.331Z,0.68
2017-02-09T04:11:32.687Z,0.62
2017-02-09T04:12:33.037Z,0.7
2017-02-09T04:13:33.038Z,0.8
2017-02-09T04:14:32.996Z,0.72
2017-02-09T04:15:33.065Z,0.74
2017-02-09T04:16:32.936Z,0.74
2017-02-09T04:17:32.944Z,0.57
2017-02-09T04:18:32.873Z,0.46
2017-02-09T04:19:32.494Z,0.41
2017-02-09T04:20:32.821Z,0.46
2017-02-09T04:21:32.406Z,0.43
2017-02-09T04:22:32.373Z,0.41
2017-02-09T04:23:32.390Z,0.37
2017-02-09T04:24:32.697Z,0.35
2017-02-09T04:25:32.288Z,0.42
2017-02-09T04:26:32.250Z,0.43
2017-02-09T04:27:32.611Z,0.6
2017-02-09T04:28:32.211Z,0.65
2017-02-09T04:29:32.578Z,0.68
2017-02-09T04:30:32.136Z,0.53
2017-02-09T04:31:31.728Z,0.61
2017-02-09T04:32:32.468Z,0.53
2017-02-09T04:33:32.056Z,0.64
2017-02-09T04:34:32.085Z,0.57
2017-02-09T04:35:31.996Z,0.49
2017-02-09T04:36:32.365Z,0.46
2017-02-09T04:37:32.354Z,0.37
2017-02-09T04:38:31.524Z,0.37
2017-02-09T04:39:31.893Z,0.35
2017-02-09T04:40:31.872Z,0.43
2017-02-09T04:41:32.248Z,0.53
2017-02-09T04:42:32.182Z,0.57
2017-02-09T04:43:32.158Z,0.6
2017-02-09T04:44:31.746Z,0.53
2017-02-09T04:45:31.723Z,0.57
2017-02-09T04:46:32.077Z,0.41
2017-02-09T04:47:31.270Z,0.46
2017-02-09T04:48:32.018Z,0.45
2017-02-09T04:49:31.989Z,0.45
2017-02-09T04:50:31.579Z,0.64
2017-02-09T04:51:31.579Z,0.74
2017-02-09T04:52:31.897Z,0.82
2017-02-09T04:53:31.877Z,0.9
2017-02-09T04:54:31.466Z,0.83
2017-02-09T04:55:31.429Z,0.7
2017-02-09T04:56:31.794Z,0.64
2017-02-09T04:57:31.764Z,0.68
2017-02-09T04:58:31.725Z,0.7
2017-02-09T04:59:31.704Z,0.74
2017-02-09T05:00:31.698Z,0.7
2017-02-09T05:01:31.257Z,0.62
2017-02-09T05:02:31.222Z,0.71
2017-02-09T05:03:31.601Z,0.62
2017-02-09T05:04:31.561Z,0.51
2017-02-09T05:05:31.532Z,0.46
2017-02-09T05:06:31.529Z,0.43
2017-02-09T05:07:31.499Z,0.43
2017-02-09T05:08:31.469Z,0.52
2017-02-09T05:09:31.029Z,0.68
2017-02-09T05:10:30.995Z,0.68
2017-02-09T05:11:30.978Z,0.46
2017-02-09T05:12:30.939Z,0.45
2017-02-09T05:13:31.301Z,0.49
2017-02-09T05:14:31.277Z,0.34
2017-02-09T05:15:31.244Z,0.39
2017-02-09T05:16:30.835Z,0.43
2017-02-09T05:17:30.794Z,0.53
2017-02-09T05:18:31.153Z,0.72
2017-02-09T05:19:30.735Z,0.57
2017-02-09T05:20:31.093Z,0.61
2017-02-09T05:21:31.064Z,0.67
2017-02-09T05:22:30.271Z,0.6
2017-02-09T05:23:31.018Z,0.65
2017-02-09T05:24:30.602Z,0.65
2017-02-09T05:25:30.949Z,0.71
2017-02-09T05:26:30.929Z,0.71
2017-02-09T05:27:30.127Z,0.7
2017-02-09T05:28:30.489Z,0.65
2017-02-09T05:29:30.447Z,0.53
2017-02-09T05:30:30.432Z,0.56
2017-02-09T05:31:30.408Z,0.46
2017-02-09T05:32:30.495Z,0.43
2017-02-09T05:33:30.345Z,0.43
2017-02-09T05:34:30.351Z,0.41
2017-02-09T05:35:30.674Z,0.27
2017-02-09T05:36:30.634Z,0.19
2017-02-09T05:37:30.618Z,0.15
2017-02-09T05:38:30.213Z,0.19
2017-02-09T05:39:30.552Z,0.21
2017-02-09T05:40:30.151Z,0.17
2017-02-09T05:41:30.520Z,0.43
2017-02-09T05:42:30.080Z,0.3
2017-02-09T05:43:30.216Z,0.21
2017-02-09T05:44:29.716Z,0.06
2017-02-09T05:45:30.379Z,0.15
2017-02-09T05:46:29.977Z,0.23
2017-02-09T05:47:30.337Z,0.33
2017-02-09T05:48:30.346Z,0.37
2017-02-09T05:49:29.884Z,0.46
2017-02-09T05:50:29.845Z,0.53
2017-02-09T05:51:30.206Z,0.43
2017-02-09T05:52:29.415Z,0.48
2017-02-09T05:53:29.765Z,0.45
2017-02-09T05:54:30.126Z,0.42
2017-02-09T05:55:30.125Z,0.39
2017-02-09T05:56:30.072Z,0.37
2017-02-09T05:57:29.654Z,0.34
2017-02-09T05:58:29.221Z,0.23
2017-02-09T05:59:30.003Z,0.31
2017-02-09T06:00:29.968Z,0.37
2017-02-09T06:01:29.540Z,0.41
2017-02-09T06:02:29.888Z,0.41
2017-02-09T06:03:29.469Z,0.39
2017-02-09T06:04:29.848Z,0.19
2017-02-09T06:05:29.804Z,0.41
2017-02-09T06:06:29.777Z,0.31
2017-02-09T06:07:29.804Z,0.46
2017-02-09T06:08:29.732Z,0.33
2017-02-09T06:09:29.757Z,0.39
2017-02-09T06:10:29.276Z,0.42
2017-02-09T06:11:29.244Z,0.46
2017-02-09T06:12:29.226Z,0.45
2017-02-09T06:13:29.670Z,0.53
2017-02-09T06:14:29.164Z,0.53
2017-02-09T06:15:29.121Z,0.64
2017-02-09T06:16:29.110Z,0.48
2017-02-09T06:17:29.080Z,0.37
2017-02-09T06:18:29.042Z,0.35
2017-02-09T06:19:29.501Z,0.49
2017-02-09T06:20:29.372Z,0.56
2017-02-09T06:21:28.950Z,0.65
2017-02-09T06:22:29.309Z,0.56
2017-02-09T06:23:28.911Z,0.62
2017-02-09T06:24:29.267Z,0.64
2017-02-09T06:25:29.218Z,0.65
2017-02-09T06:26:28.818Z,0.72
2017-02-09T06:27:29.197Z,0.61
2017-02-09T06:28:29.146Z,0.61
2017-02-09T06:29:29.121Z,0.62
2017-02-09T06:30:29.083Z,0.67
2017-02-09T06:31:29.087Z,0.56
2017-02-09T06:32:28.253Z,0.56
2017-02-09T06:33:29.013Z,0.62
2017-02-09T06:34:28.983Z,0.61
2017-02-09T06:35:28.962Z,0.49
2017-02-09T06:36:28.922Z,0.42
2017-02-09T06:37:28.882Z,0.3
2017-02-09T06:38:28.852Z,0.45
2017-02-09T06:39:28.831Z,0.37
2017-02-09T06:40:28.479Z,0.28
2017-02-09T06:41:28.770Z,0.19
2017-02-09T06:42:28.366Z,0.25
2017-02-09T06:43:28.333Z,0.27
2017-02-09T06:44:28.749Z,0.39
2017-02-09T06:45:28.766Z,0.25
2017-02-09T06:46:28.247Z,0.19
2017-02-09T06:47:27.866Z,0.25
2017-02-09T06:48:28.645Z,0.3
2017-02-09T06:49:28.544Z,0.41
2017-02-09T06:50:28.661Z,0.34
2017-02-09T06:51:28.630Z,0.35
2017-02-09T06:52:27.694Z,0.19
2017-02-09T06:53:27.653Z,0.33
2017-02-09T06:54:28.448Z,0.23
2017-02-09T06:55:27.590Z,0.07
2017-02-09T06:56:28.470Z,0.06
2017-02-09T06:57:28.403Z,0.13
2017-02-09T06:58:27.902Z,0.03
2017-02-09T06:59:28.259Z,0.09
2017-02-09T07:00:28.238Z,0.1
2017-02-09T07:01:28.287Z,0.13
2017-02-09T07:02:28.217Z,0.13
2017-02-09T07:03:28.227Z,0.1
2017-02-09T07:04:28.117Z,0.1
2017-02-09T07:05:28.102Z,0.27
2017-02-09T07:06:27.670Z,0.24
2017-02-09T07:07:27.689Z,0.21
2017-02-09T07:08:27.994Z,0.15
2017-02-09T07:09:27.973Z,0.23
2017-02-09T07:10:27.941Z,0.17
2017-02-09T07:11:27.562Z,0.24
2017-02-09T07:12:27.891Z,0.24
2017-02-09T07:13:27.458Z,0.16
2017-02-09T07:14:27.426Z,0.15
2017-02-09T07:15:27.779Z,0.06
2017-02-09T07:16:27.371Z,0.23
2017-02-09T07:17:27.445Z,0.16
2017-02-09T07:18:27.702Z,0.19
2017-02-09T07:19:27.676Z,0.17
2017-02-09T07:20:27.636Z,0.21
2017-02-09T07:21:27.606Z,0.15
2017-02-09T07:22:27.211Z,0.15
2017-02-09T07:23:27.173Z,0.13
2017-02-09T07:24:27.143Z,0.21
2017-02-09T07:25:27.495Z,0.27
2017-02-09T07:26:27.462Z,0.39
2017-02-09T07:27:27.437Z,0.33
2017-02-09T07:28:27.402Z,0.16
2017-02-09T07:29:27.001Z,0.34
2017-02-09T07:30:26.578Z,0.35
2017-02-09T07:31:27.320Z,0.24
2017-02-09T07:32:27.309Z,0.17
2017-02-09T07:33:26.969Z,0.13
2017-02-09T07:34:26.839Z,0.27
2017-02-09T07:35:26.877Z,0.35
2017-02-09T07:36:27.183Z,0.35
2017-02-09T07:37:27.200Z,0.34
2017-02-09T07:38:26.735Z,0.3
2017-02-09T07:39:26.807Z,0.16
2017-02-09T07:40:27.056Z,0.13
2017-02-09T07:41:27.054Z,0.17
2017-02-09T07:42:26.617Z,0.3
2017-02-09T07:43:27.095Z,0.28
2017-02-09T07:44:26.950Z,0.12
2017-02-09T07:45:26.683Z,0.17
2017-02-09T07:46:26.882Z,0.24
2017-02-09T07:47:26.500Z,0.3
2017-02-09T07:48:26.448Z,0.43
2017-02-09T07:49:26.410Z,0.21
2017-02-09T07:50:26.397Z,0.28
2017-02-09T07:51:26.739Z,0.3
2017-02-09T07:52:26.741Z,0.34
2017-02-09T07:53:26.689Z,0.27
2017-02-09T07:54:26.277Z,0.35
2017-02-09T07:55:26.640Z,0.23
2017-02-09T07:56:26.597Z,0.09
2017-02-09T07:57:26.186Z,-0.08
2017-02-09T07:58:26.537Z,0.07
2017-02-09T07:59:26.134Z,0.13
2017-02-09T08:00:26.104Z,0.34
2017-02-09T08:01:26.079Z,0.42
2017-02-09T08:02:26.438Z,0.3
2017-02-09T08:03:26.039Z,0.46
2017-02-09T08:04:26.390Z,0.34
2017-02-09T08:05:25.951Z,0.33
2017-02-09T08:06:26.323Z,0.17
2017-02-09T08:07:25.902Z,0.34
2017-02-09T08:08:26.251Z,0.17
2017-02-09T08:09:26.233Z,0.1
2017-02-09T08:10:26.190Z,0.02
2017-02-09T08:11:25.407Z,0.03
2017-02-09T08:12:25.370Z,0.13
2017-02-09T08:13:26.110Z,0.1
2017-02-09T08:14:25.698Z,0.23
2017-02-09T08:15:26.051Z,0.16
2017-02-09T08:16:26.028Z,0.28
2017-02-09T08:17:25.234Z,0.23
2017-02-09T08:18:25.587Z,0.37
2017-02-09T08:19:25.976Z,0.46
2017-02-09T08:20:25.915Z,0.46
2017-02-09T08:21:25.901Z,0.31
2017-02-09T08:22:25.864Z,0.24
2017-02-09T08:23:25.814Z,0.16
2017-02-09T08:24:25.411Z,0.3
2017-02-09T08:25:25.383Z,0.37
2017-02-09T08:26:24.961Z,0.48
2017-02-09T08:27:25.718Z,0.28
2017-02-09T08:28:24.902Z,0.57
2017-02-09T08:29:24.871Z,0.41
2017-02-09T08:30:25.622Z,0.41
2017-02-09T08:31:25.591Z,0.42
2017-02-09T08:32:25.571Z,0.27
2017-02-09T08:33:25.551Z,0.31
2017-02-09T08:34:25.129Z,0.17
2017-02-09T08:35:25.104Z,0.15
2017-02-09T08:36:25.072Z,0.28
2017-02-09T08:37:24.636Z,0.51
2017-02-09T08:38:25.489Z,0.45
2017-02-09T08:39:24.976Z,0.51
2017-02-09T08:40:25.376Z,0.57
2017-02-09T08:41:24.527Z,0.39
2017-02-09T08:42:24.901Z,0.41
2017-02-09T08:43:24.865Z,0.34
2017-02-09T08:44:25.214Z,0.17
2017-02-09T08:45:25.185Z,0.21
2017-02-09T08:46:25.163Z,0.19
2017-02-09T08:47:24.754Z,0.02
2017-02-09T08:48:25.113Z,0.02
2017-02-09T08:49:24.682Z,0.06
2017-02-09T08:50:25.042Z,0.24
2017-02-09T08:51:25.014Z,0.27
2017-02-09T08:52:24.601Z,0.27
2017-02-09T08:53:24.574Z,0.17
2017-02-09T08:54:24.961Z,0.13
2017-02-09T08:55:24.520Z,0.23
2017-02-09T08:56:24.871Z,0.13
2017-02-09T08:57:24.837Z,0.07
2017-02-09T08:58:24.812Z,0.09
2017-02-09T08:59:24.399Z,0.17
2017-02-09T09:00:24.367Z,0.06
2017-02-09T09:01:24.347Z,0.19
2017-02-09T09:02:24.315Z,0.48
2017-02-09T09:03:24.665Z,0.45
2017-02-09T09:04:24.256Z,0.6
2017-02-09T09:05:23.852Z,0.45
2017-02-09T09:06:24.610Z,0.39
2017-02-09T09:07:24.563Z,0.31
2017-02-09T09:08:24.133Z,0.45
2017-02-09T09:09:24.513Z,0.52
2017-02-09T09:10:24.082Z,0.67
2017-02-09T09:11:24.069Z,0.67
2017-02-09T09:12:24.421Z,0.68
2017-02-09T09:13:24.000Z,0.52
2017-02-09T09:14:23.961Z,0.42
2017-02-09T09:15:24.340Z,0.33
2017-02-09T09:16:23.954Z,0.41
2017-02-09T09:17:24.271Z,0.34
2017-02-09T09:18:23.863Z,0.35
2017-02-09T09:19:24.208Z,0.45
2017-02-09T09:20:24.241Z,0.7
2017-02-09T09:21:23.777Z,0.78
2017-02-09T09:22:24.159Z,0.86
2017-02-09T09:23:23.714Z,0.71
2017-02-09T09:24:23.683Z,0.79
2017-02-09T09:25:24.048Z,0.75
2017-02-09T09:26:23.626Z,0.71
2017-02-09T09:27:24.044Z,0.46
2017-02-09T09:28:24.024Z,0.49
2017-02-09T09:29:23.542Z,0.45
2017-02-09T09:30:23.511Z,0.37
2017-02-09T09:31:23.485Z,0.41
2017-02-09T09:32:23.852Z,0.43
2017-02-09T09:33:23.431Z,0.39
2017-02-09T09:34:23.781Z,0.35
2017-02-09T09:35:23.360Z,0.41
2017-02-09T09:36:22.949Z,0.48
2017-02-09T09:37:23.319Z,0.34
2017-02-09T09:38:23.308Z,0.37
2017-02-09T09:39:23.639Z,0.51
2017-02-09T09:40:23.611Z,0.67
2017-02-09T09:41:23.586Z,0.82
2017-02-09T09:42:23.592Z,0.64
2017-02-09T09:43:23.537Z,0.65
2017-02-09T09:44:23.116Z,0.65
2017-02-09T09:45:23.085Z,0.79
2017-02-09T09:46:23.436Z,0.83
2017-02-09T09:47:23.019Z,1
2017-02-09T09:48:23.005Z,0.96
2017-02-09T09:49:23.353Z,1.04
2017-02-09T09:50:23.333Z,1.06
2017-02-09T09:51:23.294Z,0.96
2017-02-09T09:52:23.272Z,1.06
2017-02-09T09:53:22.859Z,0.71
2017-02-09T09:54:22.831Z,0.64
2017-02-09T09:55:22.409Z,0.75
2017-02-09T09:56:23.151Z,0.64
2017-02-09T09:57:22.749Z,0.56
2017-02-09T09:58:22.716Z,0.64
2017-02-09T09:59:23.068Z,0.79
2017-02-09T10:00:22.654Z,0.88
2017-02-09T10:01:23.031Z,0.8
2017-02-09T10:02:23.038Z,0.88
2017-02-09T10:03:22.186Z,0.89
2017-02-09T10:04:23.195Z,0.88
2017-02-09T10:05:22.906Z,0.96
2017-02-09T10:06:22.494Z,0.9
2017-02-09T10:07:22.853Z,0.96
2017-02-09T10:08:22.144Z,1.07
2017-02-09T10:09:22.794Z,1.11
2017-02-09T10:10:22.412Z,1.31
2017-02-09T10:11:22.402Z,1.22
2017-02-09T10:12:22.798Z,1.17
2017-02-09T10:13:21.901Z,1.25
2017-02-09T10:14:21.941Z,1.04
2017-02-09T10:15:22.279Z,1.1
2017-02-09T10:16:22.220Z,1.04
2017-02-09T10:17:22.629Z,0.92
2017-02-09T10:18:22.231Z,0.88
2017-02-09T10:19:22.188Z,0.93
2017-02-09T10:20:22.107Z,0.89
2017-02-09T10:21:22.157Z,0.74
2017-02-09T10:22:22.042Z,0.62
2017-02-09T10:23:22.395Z,0.62
2017-02-09T10:24:22.364Z,0.7
2017-02-09T10:25:22.038Z,0.78
2017-02-09T10:26:21.954Z,0.7
2017-02-09T10:27:22.285Z,0.74
2017-02-09T10:28:21.874Z,0.85
2017-02-09T10:29:22.241Z,1
2017-02-09T10:30:21.802Z,1.03
2017-02-09T10:31:21.821Z,1.18
2017-02-09T10:32:22.135Z,1.26
2017-02-09T10:33:21.880Z,1.26
2017-02-09T10:34:22.089Z,1.28
2017-02-09T10:35:22.059Z,1.26
2017-02-09T10:36:22.018Z,1.33
2017-02-09T10:37:22.018Z,1.17
2017-02-09T10:38:21.968Z,1.07
2017-02-09T10:39:21.564Z,1.22
2017-02-09T10:40:21.525Z,1.06
2017-02-09T10:41:21.907Z,1.08
2017-02-09T10:42:21.865Z,1.24
2017-02-09T10:43:21.444Z,1.07
2017-02-09T10:44:21.804Z,1.21
2017-02-09T10:45:21.784Z,1.18
2017-02-09T10:46:21.754Z,1.28
2017-02-09T10:47:21.726Z,1.15
2017-02-09T10:48:21.292Z,1.25
2017-02-09T10:49:21.281Z,1.36
2017-02-09T10:50:21.631Z,1.4
2017-02-09T10:51:21.611Z,1.26
2017-02-09T10:52:21.593Z,1.25
2017-02-09T10:53:21.553Z,1.17
2017-02-09T10:54:21.520Z,0.89
2017-02-09T10:55:21.499Z,0.96
2017-02-09T10:56:21.461Z,1.1
2017-02-09T10:57:21.438Z,0.89
2017-02-09T10:58:21.407Z,1.06
2017-02-09T10:59:21.026Z,1.17
2017-02-09T11:00:20.585Z,1.19
2017-02-09T11:01:21.367Z,1.06
2017-02-09T11:02:21.295Z,1.19
2017-02-09T11:03:20.891Z,1.25
2017-02-09T11:04:20.849Z,1.19
2017-02-09T11:05:20.903Z,1.21
2017-02-09T11:06:21.181Z,1.28
2017-02-09T11:07:20.838Z,1.28
2017-02-09T11:08:20.730Z,1.21
2017-02-09T11:09:21.194Z,1.19
2017-02-09T11:10:21.069Z,1.18
2017-02-09T11:11:21.180Z,1.18
2017-02-09T11:12:21.019Z,1.18
2017-02-09T11:13:20.729Z,1.22
2017-02-09T11:14:20.968Z,1.15
2017-02-09T11:15:20.549Z,1.1
2017-02-09T11:16:20.517Z,1.24
2017-02-09T11:17:20.148Z,1.11
2017-02-09T11:18:20.861Z,1.24
2017-02-09T11:19:20.828Z,1.24
2017-02-09T11:20:20.806Z,1.22
2017-02-09T11:21:20.766Z,1.24
2017-02-09T11:22:20.438Z,1.21
2017-02-09T11:23:20.716Z,1.15
2017-02-09T11:24:20.697Z,1.26
2017-02-09T11:25:20.652Z,1.15
2017-02-09T11:26:20.646Z,1.15
2017-02-09T11:27:19.895Z,1.33
2017-02-09T11:28:20.583Z,1.28
2017-02-09T11:29:20.167Z,1.42
2017-02-09T11:30:20.148Z,1.33
2017-02-09T11:31:20.169Z,1.44
2017-02-09T11:32:20.120Z,1.54
2017-02-09T11:33:20.038Z,1.5
2017-02-09T11:34:20.398Z,1.37
2017-02-09T11:35:19.734Z,1.43
2017-02-09T11:36:20.344Z,1.43
2017-02-09T11:37:20.326Z,1.33
2017-02-09T11:38:19.918Z,1.24
2017-02-09T11:39:20.256Z,1.19
2017-02-09T11:40:20.239Z,1.07
2017-02-09T11:41:20.221Z,1.22
2017-02-09T11:42:19.804Z,1.24
2017-02-09T11:43:19.763Z,1.11
2017-02-09T11:44:19.748Z,1.19
2017-02-09T11:45:19.715Z,1.18
2017-02-09T11:46:19.671Z,1.22
2017-02-09T11:47:20.051Z,1.28
2017-02-09T11:48:20.011Z,1.19
2017-02-09T11:49:19.613Z,1.25
2017-02-09T11:50:19.961Z,1.26
2017-02-09T11:51:19.549Z,1.31
2017-02-09T11:52:19.124Z,1.43
2017-02-09T11:53:19.938Z,1.42
2017-02-09T11:54:19.847Z,1.39
2017-02-09T11:55:19.827Z,1.53
2017-02-09T11:56:19.807Z,1.44
2017-02-09T11:57:19.775Z,1.57
2017-02-09T11:58:19.746Z,1.57
2017-02-09T11:59:19.314Z,1.54
2017-02-09T12:00:19.322Z,1.5
2017-02-09T12:01:19.655Z,1.5
2017-02-09T12:02:18.856Z,1.6
2017-02-09T12:03:19.602Z,1.46
2017-02-09T12:04:19.193Z,1.6
2017-02-09T12:05:19.144Z,1.55
2017-02-09T12:06:19.511Z,1.28
2017-02-09T12:07:19.511Z,1.47
2017-02-09T12:08:19.459Z,1.39
2017-02-09T12:09:19.033Z,1.35
2017-02-09T12:10:19.411Z,1.29
2017-02-09T12:11:19.367Z,1.25
2017-02-09T12:12:19.376Z,1.4
2017-02-09T12:13:18.927Z,1.65
2017-02-09T12:14:19.306Z,1.6
2017-02-09T12:15:18.897Z,1.61
2017-02-09T12:16:18.845Z,1.73
2017-02-09T12:17:19.205Z,1.72
2017-02-09T12:18:19.176Z,1.71
2017-02-09T12:19:19.145Z,1.83
2017-02-09T12:20:19.114Z,1.8
2017-02-09T12:21:18.712Z,1.65
2017-02-09T12:22:18.679Z,1.78
2017-02-09T12:23:19.845Z,1.85
2017-02-09T12:24:19.031Z,1.85
2017-02-09T12:25:18.601Z,1.94
2017-02-09T12:26:18.573Z,1.82
2017-02-09T12:27:18.555Z,1.82
2017-02-09T12:28:18.620Z,1.88
2017-02-09T12:29:18.880Z,1.68
2017-02-09T12:30:18.458Z,1.65
2017-02-09T12:31:18.442Z,1.53
2017-02-09T12:32:18.797Z,1.68
2017-02-09T12:33:18.756Z,1.67
2017-02-09T12:34:18.727Z,1.8
2017-02-09T12:35:18.773Z,1.76
2017-02-09T12:36:18.284Z,1.78
2017-02-09T12:37:17.900Z,1.83
2017-02-09T12:38:18.247Z,1.82
2017-02-09T12:39:18.614Z,1.97
2017-02-09T12:40:17.905Z,2.09
2017-02-09T12:41:18.552Z,2.19
2017-02-09T12:42:17.744Z,2.07
2017-02-09T12:43:17.711Z,2.1
2017-02-09T12:44:18.080Z,2.15
2017-02-09T12:45:18.041Z,2.09
2017-02-09T12:46:18.409Z,1.93
2017-02-09T12:47:18.379Z,1.79
2017-02-09T12:48:18.350Z,1.65
2017-02-09T12:49:17.948Z,1.85
2017-02-09T12:50:18.305Z,1.71
2017-02-09T12:51:18.279Z,1.68
2017-02-09T12:52:17.857Z,1.76
2017-02-09T12:53:17.838Z,1.93
2017-02-09T12:54:17.855Z,1.82
2017-02-09T12:55:17.767Z,1.88
2017-02-09T12:56:17.834Z,1.72
2017-02-09T12:57:18.114Z,1.5
2017-02-09T12:58:18.093Z,1.54
2017-02-09T12:59:18.058Z,1.64
2017-02-09T13:00:17.696Z,1.53
2017-02-09T13:01:18.011Z,1.4
2017-02-09T13:02:17.581Z,1.31
2017-02-09T13:03:17.560Z,1.47
2017-02-09T13:04:17.907Z,1.64
2017-02-09T13:05:17.880Z,1.75
2017-02-09T13:06:17.870Z,1.93
2017-02-09T13:07:17.448Z,1.94
2017-02-09T13:08:17.803Z,1.9
2017-02-09T13:09:17.785Z,1.91
2017-02-09T13:10:17.759Z,1.8
2017-02-09T13:11:17.776Z,1.57
2017-02-09T13:12:17.298Z,1.62
2017-02-09T13:13:17.286Z,1.76
2017-02-09T13:14:17.243Z,1.94
2017-02-09T13:15:16.833Z,2.02
2017-02-09T13:16:17.604Z,2.13
2017-02-09T13:17:17.179Z,2.23
2017-02-09T13:18:17.533Z,2.04
2017-02-09T13:19:17.514Z,2.09
2017-02-09T13:20:17.474Z,1.94
2017-02-09T13:21:17.463Z,1.68